createdAt,value
2023-03-24T00:00:12.752Z,5.18
2023-03-24T00:03:17.722Z,4.85
2023-03-24T00:06:23.792Z,4.65
2023-03-24T00:09:26.543Z,5.07
2023-03-24T00:12:29.281Z,4.65
2023-03-24T00:15:32.114Z,3.92
2023-03-24T00:18:35.505Z,4.22
2023-03-24T00:21:38.106Z,3.58
2023-03-24T00:24:46.575Z,3.53
2023-03-24T00:27:49.750Z,3.85
2023-03-24T00:30:52.437Z,4.05
2023-03-24T00:33:55.636Z,4.30
2023-03-24T00:36:58.430Z,4.75
2023-03-24T00:40:01.209Z,4.35
2023-03-24T00:43:04.748Z,4.47
2023-03-24T00:46:11.973Z,4.60
2023-03-24T00:49:15.996Z,3.83
2023-03-24T00:52:25.337Z,2.88
2023-03-24T00:55:29.020Z,4.05
2023-03-24T00:58:34.761Z,3.67
2023-03-24T01:01:39.250Z,4.38
2023-03-24T01:04:46.619Z,4.50
2023-03-24T01:07:52.510Z,3.60
2023-03-24T01:10:55.765Z,4.35
2023-03-24T01:13:59.118Z,4.45
2023-03-24T01:17:02.052Z,4.22
2023-03-24T01:20:08.488Z,3.53
2023-03-24T01:23:14.586Z,3.70
2023-03-24T01:26:17.323Z,3.30
2023-03-24T01:29:20.275Z,4.57
2023-03-24T01:32:23.753Z,4.50
2023-03-24T01:35:31.199Z,3.60
2023-03-24T01:38:34.473Z,3.42
2023-03-24T01:41:41.094Z,4.13
2023-03-24T01:44:52.187Z,4.07
2023-03-24T01:47:56.359Z,4.53
2023-03-24T01:51:03.548Z,3.75
2023-03-24T01:54:15.430Z,3.80
2023-03-24T01:57:24.838Z,3.95
2023-03-24T02:00:27.938Z,3.72
2023-03-24T02:03:59.344Z,3.28
2023-03-24T02:07:09.373Z,3.78
2023-03-24T02:10:15.665Z,3.83
2023-03-24T02:13:18.408Z,3.90
2023-03-24T02:16:41.317Z,3.42
2023-03-24T02:20:13.869Z,3.47
2023-03-24T02:23:48.559Z,2.53
2023-03-24T02:27:00.156Z,3.80
2023-03-24T02:30:30.015Z,4.55
2023-03-24T02:33:51.469Z,3.45
2023-03-24T02:37:00.669Z,3.65
2023-03-24T02:40:12.653Z,3.60
2023-03-24T02:43:15.306Z,4.43
2023-03-24T02:46:24.296Z,3.58
2023-03-24T02:49:54.533Z,3.70
2023-03-24T02:53:16.926Z,3.55
2023-03-24T02:56:44.841Z,3.50
2023-03-24T03:00:23.800Z,3.42
2023-03-24T03:03:47.127Z,3.75
2023-03-24T03:06:54.408Z,4.03
2023-03-24T03:10:16.714Z,3.30
2023-03-24T03:13:32.910Z,3.95
2023-03-24T03:16:45.984Z,3.67
2023-03-24T03:19:55.823Z,3.60
2023-03-24T03:23:06.068Z,3.00
2023-03-24T03:26:13.355Z,3.25
2023-03-24T03:29:22.769Z,3.42
2023-03-24T03:32:28.933Z,3.08
2023-03-24T03:35:39.036Z,3.30
2023-03-24T03:39:11.253Z,3.55
2023-03-24T03:42:13.966Z,3.20
2023-03-24T03:45:16.821Z,3.58
2023-03-24T03:48:19.760Z,3.42
2023-03-24T03:51:22.478Z,3.80
2023-03-24T03:54:31.262Z,3.97
2023-03-24T03:57:35.045Z,4.07
2023-03-24T04:00:47.889Z,3.40
2023-03-24T04:04:26.430Z,4.30
2023-03-24T04:08:19.192Z,3.55
2023-03-24T04:12:05.157Z,6.28
2023-03-24T04:15:36.454Z,5.97
2023-03-24T04:22:25.588Z,13.00
2023-03-24T04:25:50.385Z,7.05
2023-03-24T04:29:33.632Z,5.82
2023-03-24T04:33:00.927Z,10.45
2023-03-24T04:36:17.276Z,3.95
2023-03-24T04:39:43.175Z,6.82
2023-03-24T04:42:52.918Z,5.13
2023-03-24T04:45:59.498Z,3.35
2023-03-24T04:49:15.145Z,3.53
2023-03-24T04:52:19.766Z,4.70
2023-03-24T04:55:50.506Z,3.55
2023-03-24T04:59:14.054Z,3.63
2023-03-24T05:02:19.481Z,2.75
2023-03-24T05:05:49.313Z,3.80
2023-03-24T05:08:52.933Z,3.85
2023-03-24T05:11:56.116Z,3.55
2023-03-24T05:14:59.938Z,4.10
2023-03-24T05:18:04.165Z,4.55
2023-03-24T05:21:07.274Z,3.88
2023-03-24T05:24:12.899Z,4.07
2023-03-24T05:27:16.885Z,3.38
2023-03-24T05:30:20.886Z,4.43
2023-03-24T05:33:26.839Z,3.47
2023-03-24T05:36:31.714Z,3.90
2023-03-24T05:39:35.649Z,3.30
2023-03-24T05:42:43.692Z,4.55
2023-03-24T05:45:48.527Z,3.13
2023-03-24T05:49:02.108Z,3.03
2023-03-24T05:52:10.527Z,4.45
2023-03-24T05:55:16.380Z,4.18
2023-03-24T05:58:21.590Z,4.97
2023-03-24T06:01:26.555Z,6.53
2023-03-24T06:04:36.624Z,5.70
2023-03-24T06:07:46.343Z,4.13
2023-03-24T06:10:49.905Z,3.05
2023-03-24T06:13:52.977Z,3.42
2023-03-24T06:16:59.883Z,4.40
2023-03-24T06:20:06.531Z,3.65
2023-03-24T06:23:26.160Z,2.60
2023-03-24T06:26:37.204Z,4.32
2023-03-24T06:29:42.786Z,4.07
2023-03-24T06:32:47.132Z,3.33
2023-03-24T06:35:51.473Z,4.10
2023-03-24T06:38:55.021Z,18.42
2023-03-24T06:41:57.899Z,10.32
2023-03-24T06:45:01.114Z,8.15
2023-03-24T06:48:04.140Z,6.57
2023-03-24T06:51:07.397Z,7.07
2023-03-24T06:54:10.927Z,5.90
2023-03-24T06:57:13.835Z,5.00
2023-03-24T07:00:37.349Z,5.22
2023-03-24T07:04:00.267Z,6.10
2023-03-24T07:08:00.727Z,8.45
2023-03-24T07:11:07.934Z,5.22
2023-03-24T07:14:11.237Z,4.80
2023-03-24T07:17:15.286Z,7.15
2023-03-24T07:20:47.157Z,5.55
2023-03-24T07:23:52.649Z,7.15
2023-03-24T07:26:57.968Z,5.60
2023-03-24T07:30:02.264Z,5.00
2023-03-24T07:33:14.565Z,4.40
2023-03-24T07:36:20.724Z,4.20
2023-03-24T07:39:23.760Z,3.95
2023-03-24T07:42:26.765Z,4.35
2023-03-24T07:45:49.899Z,3.50
2023-03-24T07:48:52.794Z,4.47
2023-03-24T07:51:56.132Z,3.63
2023-03-24T07:55:12.325Z,4.40
2023-03-24T07:58:32.169Z,4.45
2023-03-24T08:01:58.439Z,3.83
2023-03-24T08:05:15.544Z,3.28
2023-03-24T08:08:18.153Z,4.50
2023-03-24T08:11:20.917Z,4.18
2023-03-24T08:14:25.826Z,3.90
2023-03-24T08:17:28.980Z,4.55
2023-03-24T08:20:32.068Z,3.80
2023-03-24T08:23:37.084Z,4.35
2023-03-24T08:26:40.404Z,5.25
2023-03-24T08:29:44.053Z,5.15
2023-03-24T08:32:48.962Z,5.65
2023-03-24T08:35:52.904Z,4.95
2023-03-24T08:38:56.424Z,3.70
2023-03-24T08:41:59.194Z,4.43
2023-03-24T08:45:01.900Z,4.03
2023-03-24T08:48:06.486Z,3.08
2023-03-24T08:51:14.256Z,2.97
2023-03-24T08:54:17.021Z,3.25
2023-03-24T08:57:19.724Z,3.40
2023-03-24T09:00:23.059Z,3.65
2023-03-24T09:03:26.569Z,3.33
2023-03-24T09:06:29.432Z,2.65
2023-03-24T09:09:33.886Z,3.70
2023-03-24T09:12:37.622Z,3.28
2023-03-24T09:15:40.503Z,2.30
2023-03-24T09:18:43.311Z,3.20
2023-03-24T09:21:48.107Z,3.45
2023-03-24T09:24:51.101Z,3.10
2023-03-24T09:27:53.961Z,2.78
2023-03-24T09:30:58.377Z,2.92
2023-03-24T09:34:04.109Z,4.13
2023-03-24T09:37:07.210Z,3.30
2023-03-24T09:40:27.092Z,3.25
2023-03-24T09:43:29.725Z,2.88
2023-03-24T09:46:36.427Z,3.00
2023-03-24T09:49:41.703Z,3.42
2023-03-24T09:52:45.939Z,3.00
2023-03-24T09:55:49.293Z,3.53
2023-03-24T09:59:19.822Z,3.13
2023-03-24T10:02:23.239Z,3.08
2023-03-24T10:05:39.229Z,3.67
2023-03-24T10:08:44.757Z,3.05
2023-03-24T10:12:24.969Z,2.40
2023-03-24T10:15:37.844Z,3.15
2023-03-24T10:18:46.338Z,4.00
2023-03-24T10:22:06.575Z,3.40
2023-03-24T10:25:21.903Z,3.38
2023-03-24T10:28:28.716Z,3.80
2023-03-24T10:34:35.071Z,2.92
2023-03-24T10:37:37.894Z,2.70
2023-03-24T10:40:41.653Z,2.25
2023-03-24T10:43:45.898Z,3.22
2023-03-24T10:46:52.005Z,3.45
2023-03-24T10:49:58.957Z,3.67
2023-03-24T10:53:09.258Z,2.70
2023-03-24T10:56:16.777Z,2.67
2023-03-24T10:59:27.723Z,2.92
2023-03-24T11:02:32.652Z,3.00
2023-03-24T11:05:37.960Z,2.60
2023-03-24T11:08:42.270Z,2.85
2023-03-24T11:11:45.077Z,2.92
2023-03-24T11:14:47.824Z,2.45
2023-03-24T11:18:18.529Z,2.80
2023-03-24T11:21:21.595Z,2.67
2023-03-24T11:24:24.754Z,2.25
2023-03-24T11:27:27.783Z,3.00
2023-03-24T11:30:34.985Z,2.13
2023-03-24T11:33:48.399Z,2.15
2023-03-24T11:36:55.217Z,2.08
2023-03-24T11:40:13.278Z,2.97
2023-03-24T11:43:21.549Z,2.95
2023-03-24T11:46:26.886Z,2.67
2023-03-24T11:49:32.428Z,2.72
2023-03-24T11:52:40.915Z,2.92
2023-03-24T11:55:50.031Z,2.78
2023-03-24T11:59:31.807Z,3.10
2023-03-24T12:02:46.994Z,3.15
2023-03-24T12:06:08.353Z,2.47
2023-03-24T12:09:32.772Z,3.28
2023-03-24T12:13:22.066Z,3.13
2023-03-24T12:16:44.972Z,2.90
2023-03-24T12:20:15.770Z,2.53
2023-03-24T12:23:33.165Z,3.70
2023-03-24T12:26:36.274Z,3.70
2023-03-24T12:29:51.337Z,3.50
2023-03-24T12:33:04.031Z,4.82
2023-03-24T12:36:37.473Z,3.05
2023-03-24T12:40:10.537Z,3.30
2023-03-24T12:43:22.449Z,3.40
2023-03-24T12:50:12.590Z,4.03
2023-03-24T12:53:33.485Z,3.63
2023-03-24T12:56:43.809Z,4.10
2023-03-24T12:59:57.963Z,3.88
2023-03-24T13:03:56.540Z,3.50
2023-03-24T13:07:06.127Z,4.55
2023-03-24T13:10:16.867Z,5.03
2023-03-24T13:13:24.359Z,5.57
2023-03-24T13:16:31.225Z,4.78
2023-03-24T13:19:35.165Z,5.45
2023-03-24T13:22:38.242Z,5.97
2023-03-24T13:25:54.652Z,5.25
2023-03-24T13:29:03.485Z,5.03
2023-03-24T13:32:17.857Z,6.32
2023-03-24T13:35:52.298Z,4.82
2023-03-24T13:38:58.643Z,5.22
2023-03-24T13:42:01.936Z,6.20
2023-03-24T13:45:07.087Z,5.28
2023-03-24T13:48:09.756Z,5.90
2023-03-24T13:51:32.034Z,5.75
2023-03-24T13:54:38.050Z,6.35
2023-03-24T13:57:42.561Z,5.80
2023-03-24T14:01:05.047Z,5.30
2023-03-24T14:04:20.208Z,5.82
2023-03-24T14:07:35.186Z,5.85
2023-03-24T14:10:42.550Z,5.38
2023-03-24T14:13:49.591Z,5.43
2023-03-24T14:17:04.762Z,5.55
2023-03-24T14:20:10.941Z,5.15
2023-03-24T14:23:35.871Z,5.22
2023-03-24T14:26:38.809Z,4.85
2023-03-24T14:30:04.376Z,5.07
2023-03-24T14:33:24.494Z,5.25
2023-03-24T14:36:40.061Z,5.25
2023-03-24T14:39:47.541Z,4.88
2023-03-24T14:42:52.718Z,4.85
2023-03-24T14:46:00.941Z,5.55
2023-03-24T14:49:29.723Z,4.72
2023-03-24T14:52:40.976Z,4.70
2023-03-24T14:55:44.424Z,4.90
2023-03-24T14:58:49.597Z,4.35
2023-03-24T15:01:59.219Z,4.65
2023-03-24T15:05:23.656Z,4.45
2023-03-24T15:08:28.314Z,4.65
2023-03-24T15:11:34.080Z,5.25
2023-03-24T15:14:37.250Z,4.68
2023-03-24T15:17:42.991Z,4.70
2023-03-24T15:20:46.522Z,4.55
2023-03-24T15:23:49.861Z,5.25
2023-03-24T15:27:18.281Z,4.93
2023-03-24T15:30:21.831Z,4.22
2023-03-24T15:33:26.362Z,4.63
2023-03-24T15:36:35.200Z,3.83
2023-03-24T15:39:39.611Z,4.75
2023-03-24T15:42:44.915Z,5.10
2023-03-24T15:46:04.638Z,4.85
2023-03-24T15:49:21.282Z,5.55
2023-03-24T15:52:38.424Z,4.80
2023-03-24T15:55:43.870Z,5.68
2023-03-24T15:59:17.837Z,5.40
2023-03-24T16:02:39.696Z,6.57
2023-03-24T16:05:48.828Z,7.03
2023-03-24T16:08:51.874Z,7.28
2023-03-24T16:11:54.939Z,6.45
2023-03-24T16:14:57.814Z,7.03
2023-03-24T16:18:00.689Z,13.18
2023-03-24T16:21:21.418Z,13.90
2023-03-24T16:24:25.073Z,6.13
2023-03-24T16:27:29.984Z,4.65
2023-03-24T16:30:38.333Z,4.35
2023-03-24T16:33:41.096Z,4.28
2023-03-24T16:36:44.237Z,4.90
2023-03-24T16:39:46.954Z,4.53
2023-03-24T16:42:50.052Z,4.88
2023-03-24T16:45:53.314Z,4.50
2023-03-24T16:48:56.482Z,4.82
2023-03-24T16:52:02.606Z,4.43
2023-03-24T16:55:06.746Z,4.60
2023-03-24T16:58:11.436Z,3.70
2023-03-24T17:01:27.702Z,4.53
2023-03-24T17:04:34.315Z,5.45
2023-03-24T17:10:42.067Z,4.80
2023-03-24T17:13:44.966Z,5.13
2023-03-24T17:16:49.487Z,4.72
2023-03-24T17:19:52.548Z,11.48
2023-03-24T17:22:57.230Z,5.97
2023-03-24T17:25:59.926Z,6.35
2023-03-24T17:29:04.641Z,4.68
2023-03-24T17:32:07.481Z,13.15
2023-03-24T17:35:15.865Z,7.13
2023-03-24T17:38:19.122Z,4.97
2023-03-24T17:41:22.197Z,6.38
2023-03-24T17:44:25.112Z,4.95
2023-03-24T17:47:27.983Z,6.53
2023-03-24T17:50:31.161Z,7.05
2023-03-24T17:53:34.152Z,7.68
2023-03-24T17:56:37.450Z,8.07
2023-03-24T17:59:40.239Z,8.95
2023-03-24T18:02:44.292Z,10.10
2023-03-24T18:05:47.088Z,8.35
2023-03-24T18:08:52.970Z,8.43
2023-03-24T18:11:56.592Z,8.63
2023-03-24T18:14:59.366Z,9.98
2023-03-24T18:18:07.568Z,8.75
2023-03-24T18:21:10.943Z,9.25
2023-03-24T18:24:13.863Z,10.48
2023-03-24T18:27:17.096Z,14.95
2023-03-24T18:30:23.105Z,14.23
2023-03-24T18:33:26.108Z,13.80
2023-03-24T18:36:32.310Z,16.42
2023-03-24T18:39:35.566Z,10.43
2023-03-24T18:42:38.895Z,9.40
2023-03-24T18:45:41.995Z,7.93
2023-03-24T18:48:45.522Z,13.05
2023-03-24T18:51:50.227Z,7.45
2023-03-24T18:54:54.552Z,6.30
2023-03-24T18:57:57.392Z,4.88
2023-03-24T19:01:07.776Z,5.60
2023-03-24T19:04:13.874Z,4.60
2023-03-24T19:07:24.656Z,5.00
2023-03-24T19:10:28.937Z,4.93
2023-03-24T19:13:32.171Z,8.85
2023-03-24T19:16:35.393Z,8.30
2023-03-24T19:19:38.844Z,10.63
2023-03-24T19:22:45.104Z,12.13
2023-03-24T19:25:55.384Z,13.00
2023-03-24T19:29:01.326Z,9.55
2023-03-24T19:32:04.567Z,13.00
2023-03-24T19:35:08.847Z,14.57
2023-03-24T19:38:11.739Z,12.00
2023-03-24T19:41:18.182Z,7.85
2023-03-24T19:44:23.095Z,7.05
2023-03-24T19:47:26.071Z,7.45
2023-03-24T19:50:28.898Z,6.90
2023-03-24T19:53:31.991Z,7.47
2023-03-24T19:56:34.824Z,6.75
2023-03-24T19:59:37.641Z,6.43
2023-03-24T20:02:41.732Z,5.47
2023-03-24T20:05:46.211Z,7.63
2023-03-24T20:08:49.244Z,7.25
2023-03-24T20:11:53.661Z,8.45
2023-03-24T20:14:56.708Z,9.23
2023-03-24T20:18:00.183Z,10.90
2023-03-24T20:21:07.506Z,7.25
2023-03-24T20:24:15.300Z,6.25
2023-03-24T20:27:19.167Z,6.35
2023-03-24T20:30:22.730Z,6.18
2023-03-24T20:33:30.200Z,7.25
2023-03-24T20:36:33.656Z,7.30
2023-03-24T20:39:38.379Z,5.80
2023-03-24T20:42:42.517Z,6.30
2023-03-24T20:45:48.505Z,8.00
2023-03-24T20:48:51.756Z,7.20
2023-03-24T20:51:55.216Z,7.22
2023-03-24T20:54:57.963Z,7.25
2023-03-24T20:58:02.578Z,7.78
2023-03-24T21:01:09.858Z,7.97
2023-03-24T21:04:13.193Z,5.68
2023-03-24T21:07:16.171Z,6.07
2023-03-24T21:10:20.217Z,7.32
2023-03-24T21:13:24.020Z,6.50
2023-03-24T21:16:34.125Z,6.60
2023-03-24T21:19:39.431Z,4.75
2023-03-24T21:22:53.991Z,4.72
2023-03-24T21:25:57.316Z,4.68
2023-03-24T21:29:01.643Z,4.97
2023-03-24T21:32:04.500Z,2.83
2023-03-24T21:35:09.669Z,2.70
2023-03-24T21:38:13.366Z,2.80
2023-03-24T21:41:17.791Z,1.80
2023-03-24T21:44:20.763Z,3.80
2023-03-24T21:47:26.037Z,3.03
2023-03-24T21:50:29.350Z,4.32
2023-03-24T21:53:32.296Z,4.32
2023-03-24T21:56:35.732Z,6.63
2023-03-24T21:59:41.366Z,3.40
2023-03-24T22:02:46.792Z,2.20
2023-03-24T22:05:49.695Z,3.03
2023-03-24T22:08:53.474Z,3.33
2023-03-24T22:11:59.255Z,3.38
2023-03-24T22:15:02.245Z,3.03
2023-03-24T22:18:06.412Z,2.17
2023-03-24T22:21:10.842Z,2.30
2023-03-24T22:24:13.858Z,1.90
2023-03-24T22:27:18.030Z,1.75
2023-03-24T22:30:24.619Z,1.98
2023-03-24T22:33:30.416Z,1.38
2023-03-24T22:36:33.155Z,2.30
2023-03-24T22:39:36.367Z,0.80
2023-03-24T22:42:39.472Z,0.68
2023-03-24T22:45:46.266Z,1.05
2023-03-24T22:48:49.661Z,10.70
2023-03-24T22:51:59.243Z,0.80
2023-03-24T22:55:02.255Z,1.73
2023-03-24T22:58:06.178Z,1.35
2023-03-24T23:01:09.811Z,1.15
2023-03-24T23:04:12.820Z,15.90
2023-03-24T23:07:16.576Z,4.40
2023-03-24T23:10:22.752Z,1.38
2023-03-24T23:13:26.712Z,0.60
2023-03-24T23:16:30.158Z,0.57
2023-03-24T23:19:34.636Z,0.70
2023-03-24T23:22:39.225Z,0.95
2023-03-24T23:25:43.942Z,0.80
2023-03-24T23:28:47.808Z,1.10
2023-03-24T23:31:50.881Z,1.17
2023-03-24T23:34:53.876Z,0.88
2023-03-24T23:37:56.815Z,1.55
2023-03-24T23:41:01.196Z,1.63
2023-03-24T23:44:03.899Z,2.60
2023-03-24T23:47:07.651Z,2.70
2023-03-24T23:50:11.740Z,2.67
2023-03-24T23:53:18.340Z,3.45
2023-03-24T23:56:21.873Z,3.95
2023-03-24T23:59:28.331Z,4.78
